Time;durP1;ratioP1;P1;durP2;ratioP2;P2;SDS_P1;SDS_P2;PMS_P1;PMS_P2;Temp;Humidity;BMP_temperature;BMP_pressure;BME280_temperature;BME280_humidity;BME280_pressure;Samples;Min_cycle;Max_cycle;Signal;HPM_P1;HPM_P2
2023/01/07 00:01:36;;;;;;;13.75;9.63;;;21.40;61.10;;;;;;5030479;28;20045;-71
2023/01/07 00:04:04;;;;;;;15.00;9.07;;;21.40;60.90;;;;;;5030290;28;20037;-71
2023/01/07 00:06:32;;;;;;;14.43;9.05;;;21.40;60.70;;;;;;5030121;28;20684;-70
2023/01/07 00:08:59;;;;;;;16.63;10.10;;;21.50;60.70;;;;;;5030270;28;20107;-70
2023/01/07 00:11:44;;;;;;;13.48;9.77;;;21.50;60.70;;;;;;5010548;28;20049;-71
2023/01/07 00:14:12;;;;;;;16.08;9.20;;;21.50;60.40;;;;;;5072835;28;20025;-71
2023/01/07 00:16:38;;;;;;;15.73;10.15;;;21.40;60.20;;;;;;5072890;28;20115;-70
2023/01/07 00:19:06;;;;;;;15.13;9.80;;;21.50;60.20;;;;;;5072669;28;20477;-70
2023/01/07 00:21:32;;;;;;;13.05;9.30;;;21.50;60.30;;;;;;5072624;28;20056;-70
2023/01/07 00:24:01;;;;;;;18.90;10.68;;;21.50;60.30;;;;;;5072240;28;20170;-70
2023/01/07 00:26:30;;;;;;;16.05;10.60;;;21.40;60.10;;;;;;5072290;28;20437;-72
2023/01/07 00:28:56;;;;;;;16.52;11.32;;;21.30;60.10;;;;;;5072756;28;20444;-70
2023/01/07 00:31:25;;;;;;;14.85;9.65;;;21.40;60.10;;;;;;5072614;28;20613;-71
2023/01/07 00:36:29;;;;;;;15.88;10.48;;;21.30;60.00;;;;;;5053932;28;20111;-70
2023/01/07 00:38:57;;;;;;;14.35;9.73;;;21.20;59.90;;;;;;5053909;28;20063;-71
2023/01/07 00:41:23;;;;;;;18.70;10.23;;;21.30;60.00;;;;;;5054123;28;20039;-71
2023/01/07 00:43:49;;;;;;;16.05;9.32;;;21.10;59.80;;;;;;5071841;28;20047;-70
2023/01/07 00:46:15;;;;;;;14.73;9.85;;;21.10;60.00;;;;;;5071737;28;20040;-70
2023/01/07 00:48:43;;;;;;;14.52;9.52;;;21.10;60.00;;;;;;5071892;28;20040;-70
2023/01/07 00:51:14;;;;;;;12.32;8.75;;;21.20;59.90;;;;;;5053767;28;20025;-71
2023/01/07 00:53:40;;;;;;;14.60;10.30;;;21.20;59.80;;;;;;5065187;28;20032;-70
2023/01/07 00:56:07;;;;;;;14.40;10.35;;;21.30;59.70;;;;;;5054019;28;20374;-70
2023/01/07 00:58:34;;;;;;;14.77;10.00;;;21.20;59.60;;;;;;5004026;28;20076;-70
2023/01/07 01:01:00;;;;;;;15.45;9.63;;;21.30;59.60;;;;;;5003153;28;20169;-71
2023/01/07 01:03:28;;;;;;;16.58;10.07;;;21.30;59.60;;;;;;5071744;28;20032;-69
2023/01/07 01:06:07;;;;;;;12.35;9.27;;;21.20;59.40;;;;;;5053695;28;20036;-70
2023/01/07 01:08:34;;;;;;;17.00;10.48;;;21.20;59.20;;;;;;5071721;28;20649;-70
2023/01/07 01:11:05;;;;;;;14.70;9.18;;;21.20;59.20;;;;;;5070711;28;20854;-71
2023/01/07 01:13:32;;;;;;;14.50;9.45;;;21.30;59.30;;;;;;5071037;28;20115;-70
2023/01/07 01:15:58;;;;;;;15.80;9.95;;;21.10;59.20;;;;;;5052762;28;20035;-71
2023/01/07 01:18:24;;;;;;;14.80;9.23;;;21.10;59.20;;;;;;5070119;28;20369;-71
2023/01/07 01:20:50;;;;;;;13.52;8.75;;;21.00;59.00;;;;;;5070473;28;20064;-71
2023/01/07 01:23:16;;;;;;;14.07;10.52;;;21.00;59.10;;;;;;5070422;28;20064;-70
2023/01/07 01:25:42;;;;;;;16.55;9.55;;;21.00;59.10;;;;;;5052693;28;20044;-70
2023/01/07 01:28:07;;;;;;;13.93;9.13;;;21.00;59.10;;;;;;5052665;28;20028;-70
2023/01/07 01:30:33;;;;;;;13.43;8.68;;;21.00;59.10;;;;;;5070716;28;20090;-70
2023/01/07 01:32:59;;;;;;;14.52;9.32;;;20.90;58.90;;;;;;5034785;28;20049;-71
2023/01/07 01:35:26;;;;;;;16.17;10.52;;;21.00;59.00;;;;;;5052957;28;20036;-71
2023/01/07 01:37:53;;;;;;;16.85;9.68;;;21.00;58.90;;;;;;5052259;28;20113;-71
2023/01/07 01:40:19;;;;;;;16.35;10.55;;;21.00;59.00;;;;;;5052364;28;20037;-70
2023/01/07 01:42:45;;;;;;;15.75;9.35;;;21.00;58.70;;;;;;5035732;28;20039;-70
2023/01/07 01:45:15;;;;;;;13.60;8.68;;;21.00;58.60;;;;;;5052384;28;20044;-71
2023/01/07 01:47:47;;;;;;;13.68;9.55;;;21.00;58.40;;;;;;5034611;28;20623;-70
2023/01/07 01:50:18;;;;;;;13.40;9.85;;;21.00;58.40;;;;;;5070526;28;20093;-71
2023/01/07 01:53:12;;;;;;;14.65;9.45;;;21.00;58.30;;;;;;5070934;28;20024;-70
2023/01/07 01:55:53;;;;;;;14.52;9.57;;;21.00;58.30;;;;;;5053063;28;20072;-70
2023/01/07 01:58:24;;;;;;;13.90;9.02;;;20.90;58.40;;;;;;5070494;28;20473;-70
2023/01/07 02:00:51;;;;;;;15.25;9.95;;;21.00;58.20;;;;;;5052701;28;20095;-71
2023/01/07 02:03:20;;;;;;;17.40;8.55;;;21.00;58.10;;;;;;5030918;28;20049;-69
2023/01/07 02:05:47;;;;;;;15.10;10.43;;;21.00;58.20;;;;;;5031021;28;20142;-70
2023/01/07 02:08:20;;;;;;;13.10;8.38;;;20.90;58.20;;;;;;5048050;28;20053;-70
2023/01/07 02:10:53;;;;;;;12.90;9.02;;;20.90;58.20;;;;;;5047912;28;20057;-69
2023/01/07 02:13:32;;;;;;;13.60;8.70;;;20.90;58.20;;;;;;5048102;28;20033;-70
2023/01/07 02:16:11;;;;;;;16.48;9.25;;;20.80;58.20;;;;;;5031448;28;20049;-70
2023/01/07 02:19:05;;;;;;;12.02;8.10;;;20.80;58.20;;;;;;5047897;28;20048;-71
2023/01/07 02:21:46;;;;;;;11.00;7.57;;;20.70;58.20;;;;;;4998152;28;20128;-70
2023/01/07 02:24:51;;;;;;;13.98;8.43;;;20.80;58.10;;;;;;5047506;28;20033;-69
2023/01/07 02:27:28;;;;;;;14.93;8.98;;;20.90;58.20;;;;;;4968795;28;20056;-70
2023/01/07 02:30:09;;;;;;;12.00;8.80;;;20.70;58.00;;;;;;4968372;28;20047;-71
2023/01/07 02:32:56;;;;;;;17.33;9.63;;;20.80;57.90;;;;;;4968358;28;20050;-70
2023/01/07 02:35:30;;;;;;;17.30;9.13;;;20.80;57.90;;;;;;4968536;28;20058;-70
2023/01/07 02:38:14;;;;;;;13.60;8.38;;;20.90;58.10;;;;;;4952807;28;20488;-69
2023/01/07 02:41:10;;;;;;;12.35;9.20;;;20.90;58.00;;;;;;4972042;28;20547;-68
2023/01/07 02:43:53;;;;;;;14.35;10.30;;;20.80;57.90;;;;;;4952793;28;20461;-70
2023/01/07 02:47:14;;;;;;;13.38;9.73;;;20.90;57.90;;;;;;4969201;28;20271;-70
2023/01/07 02:49:40;;;;;;;16.33;10.57;;;20.80;57.70;;;;;;4948990;29;20066;-69
2023/01/07 02:52:17;;;;;;;15.05;10.93;;;20.80;57.70;;;;;;4949802;28;20039;-69
2023/01/07 02:54:44;;;;;;;17.20;9.93;;;20.80;57.70;;;;;;4949630;28;20058;-71
2023/01/07 02:57:51;;;;;;;16.48;10.95;;;20.70;57.80;;;;;;4933606;29;20452;-70
2023/01/07 03:00:20;;;;;;;16.52;11.75;;;20.80;57.90;;;;;;4944905;29;20043;-70
2023/01/07 03:03:10;;;;;;;19.70;10.25;;;20.80;57.90;;;;;;4930232;29;20126;-70
2023/01/07 03:06:03;;;;;;;14.68;10.25;;;20.60;57.80;;;;;;4949028;29;20556;-69
2023/01/07 03:08:59;;;;;;;13.20;9.48;;;20.70;58.00;;;;;;4933653;29;20043;-70
2023/01/07 03:11:33;;;;;;;15.02;9.75;;;20.60;57.60;;;;;;4949796;29;20207;-70
2023/01/07 03:14:23;;;;;;;10.13;8.43;;;20.50;57.60;;;;;;4949518;28;20126;-70
2023/01/07 03:16:58;;;;;;;12.82;9.13;;;20.70;57.90;;;;;;4933642;29;20137;-70
2023/01/07 03:19:30;;;;;;;11.10;8.07;;;20.80;57.70;;;;;;4933765;29;20160;-70
2023/01/07 03:22:00;;;;;;;13.43;9.20;;;20.70;57.60;;;;;;4972291;28;20062;-70
2023/01/07 03:24:27;;;;;;;9.77;7.85;;;20.60;57.50;;;;;;4990807;28;20051;-71
2023/01/07 03:26:56;;;;;;;9.98;7.30;;;20.80;57.50;;;;;;4991763;28;20070;-70
2023/01/07 03:29:22;;;;;;;10.05;7.40;;;20.70;57.50;;;;;;4975270;28;20494;-70
2023/01/07 03:31:58;;;;;;;12.45;8.88;;;20.70;57.30;;;;;;4975316;28;20087;-70
2023/01/07 03:34:27;;;;;;;11.57;8.15;;;20.80;57.30;;;;;;4975318;28;20046;-70
2023/01/07 03:37:00;;;;;;;10.98;7.30;;;20.80;57.20;;;;;;4975429;28;20125;-70
2023/01/07 03:39:30;;;;;;;9.48;7.07;;;20.70;57.20;;;;;;4991223;28;20034;-69
2023/01/07 03:44:42;;;;;;;9.70;7.47;;;20.80;57.00;;;;;;4975174;28;20711;-70
2023/01/07 03:47:10;;;;;;;8.27;6.53;;;20.70;57.10;;;;;;4975144;28;20054;-71
2023/01/07 03:49:36;;;;;;;8.18;6.07;;;20.70;57.10;;;;;;4991221;28;20069;-69
2023/01/07 03:52:03;;;;;;;11.40;7.68;;;20.70;57.10;;;;;;4958862;28;20044;-70
2023/01/07 03:54:29;;;;;;;9.57;6.57;;;20.70;57.20;;;;;;5036173;28;20045;-70
2023/01/07 03:56:55;;;;;;;13.23;7.88;;;20.70;57.20;;;;;;5035118;28;20055;-69
2023/01/07 03:59:21;;;;;;;10.10;7.32;;;20.60;57.20;;;;;;5051703;28;20415;-70
2023/01/07 04:01:47;;;;;;;9.88;7.20;;;20.60;57.20;;;;;;5035084;28;20109;-71
2023/01/07 04:04:13;;;;;;;13.85;8.85;;;20.60;57.20;;;;;;5052877;28;20069;-70
2023/01/07 04:06:39;;;;;;;11.55;7.68;;;20.60;57.20;;;;;;5052622;28;20045;-70
2023/01/07 04:09:05;;;;;;;10.77;7.60;;;20.60;57.10;;;;;;5034752;28;20110;-68
2023/01/07 04:11:33;;;;;;;14.18;7.78;;;20.60;57.10;;;;;;5052675;28;20063;-69
2023/01/07 04:13:59;;;;;;;10.88;8.05;;;20.60;56.90;;;;;;5018821;28;20047;-70
2023/01/07 04:16:26;;;;;;;10.55;7.88;;;20.60;56.80;;;;;;5034782;28;20124;-70
2023/01/07 04:18:54;;;;;;;14.25;9.40;;;20.60;56.70;;;;;;5034746;28;20474;-70
2023/01/07 04:21:20;;;;;;;14.32;7.93;;;20.70;56.80;;;;;;5052700;28;20031;-71
2023/01/07 04:23:46;;;;;;;12.43;8.10;;;20.60;56.50;;;;;;5052428;28;20416;-70
2023/01/07 04:26:12;;;;;;;11.05;7.57;;;20.60;56.50;;;;;;5052512;28;20033;-71
2023/01/07 04:28:39;;;;;;;12.10;8.02;;;20.60;56.40;;;;;;5034122;28;20452;-71
2023/01/07 04:31:06;;;;;;;13.45;8.48;;;20.60;56.40;;;;;;5034513;28;20041;-70
2023/01/07 04:33:34;;;;;;;15.90;8.77;;;20.70;56.40;;;;;;5052439;28;20052;-71
2023/01/07 04:36:01;;;;;;;14.73;8.95;;;20.60;56.30;;;;;;5034426;28;20044;-71
2023/01/07 04:38:27;;;;;;;13.43;8.35;;;20.50;56.30;;;;;;5052033;28;20036;-71
2023/01/07 04:40:54;;;;;;;11.43;7.82;;;20.60;56.40;;;;;;5029481;28;20049;-69
2023/01/07 04:43:20;;;;;;;10.05;6.40;;;20.70;56.60;;;;;;5013150;28;20107;-70
2023/01/07 04:45:46;;;;;;;9.98;5.90;;;20.60;57.00;;;;;;5018540;28;20069;-69
2023/01/07 04:48:15;;;;;;;10.32;6.93;;;20.80;56.50;;;;;;5029391;28;20186;-70
2023/01/07 04:50:41;;;;;;;14.32;8.75;;;20.90;55.80;;;;;;5012811;28;20042;-72
2023/01/07 04:53:08;;;;;;;12.45;7.68;;;21.00;55.70;;;;;;5029584;28;20554;-71
2023/01/07 04:55:34;;;;;;;11.07;8.10;;;21.10;56.00;;;;;;5012655;28;20478;-70
2023/01/07 04:58:02;;;;;;;12.32;6.57;;;21.00;56.00;;;;;;5012934;28;20049;-70
2023/01/07 05:00:29;;;;;;;9.32;6.40;;;21.20;56.10;;;;;;5012059;28;20562;-71
2023/01/07 05:02:55;;;;;;;11.20;6.25;;;21.30;56.10;;;;;;5012921;28;20042;-70
2023/01/07 05:05:21;;;;;;;8.38;6.22;;;21.30;55.60;;;;;;5028691;28;20052;-70
2023/01/07 05:07:48;;;;;;;10.05;6.10;;;21.40;55.30;;;;;;5029140;28;20127;-69
2023/01/07 05:10:15;;;;;;;7.07;5.90;;;21.30;55.80;;;;;;4966704;28;20051;-69
2023/01/07 05:12:41;;;;;;;8.80;6.20;;;21.20;58.80;;;;;;5025222;28;20076;-71
2023/01/07 05:15:10;;;;;;;12.55;7.45;;;21.70;61.30;;;;;;5012691;28;20045;-71
2023/01/07 05:17:39;;;;;;;17.60;7.93;;;22.20;67.20;;;;;;5012533;28;20037;-72
2023/01/07 05:20:07;;;;;;;10.02;6.35;;;22.30;62.60;;;;;;5029049;28;20044;-69
2023/01/07 05:22:34;;;;;;;9.82;6.05;;;22.50;63.00;;;;;;4996894;28;20204;-69
2023/01/07 05:25:00;;;;;;;9.02;5.35;;;22.50;58.20;;;;;;4995940;28;20216;-70
2023/01/07 05:27:27;;;;;;;9.13;6.80;;;22.40;55.70;;;;;;5028918;28;20096;-69
2023/01/07 05:29:53;;;;;;;9.63;7.07;;;22.60;54.10;;;;;;4989049;28;20052;-70
2023/01/07 05:32:19;;;;;;;10.05;7.07;;;22.40;52.20;;;;;;4989255;28;20204;-69
2023/01/07 05:34:45;;;;;;;10.10;6.25;;;22.30;51.90;;;;;;4973334;28;20053;-68
2023/01/07 05:37:12;;;;;;;18.40;7.22;;;22.10;52.20;;;;;;4989098;28;20038;-68
2023/01/07 05:39:40;;;;;;;12.32;7.30;;;21.90;52.60;;;;;;4970882;28;20487;-69
2023/01/07 05:42:07;;;;;;;8.65;6.18;;;21.80;53.10;;;;;;4972144;28;20069;-68
2023/01/07 05:44:33;;;;;;;11.30;7.20;;;21.70;53.60;;;;;;5004966;28;20041;-69
2023/01/07 05:46:59;;;;;;;8.55;5.57;;;21.80;54.10;;;;;;5027912;28;20049;-68
2023/01/07 05:49:25;;;;;;;10.30;6.30;;;21.70;54.40;;;;;;5028085;28;20045;-68
2023/01/07 05:51:51;;;;;;;8.13;5.82;;;21.60;55.60;;;;;;5028496;28;20049;-67
2023/01/07 05:54:17;;;;;;;7.93;6.18;;;21.80;55.50;;;;;;5028432;28;20033;-69
2023/01/07 05:56:43;;;;;;;8.90;5.93;;;21.80;55.00;;;;;;5028362;28;20045;-69
2023/01/07 05:59:09;;;;;;;9.30;6.65;;;21.90;54.90;;;;;;5027945;28;20083;-70
2023/01/07 06:01:35;;;;;;;10.63;8.20;;;22.00;54.60;;;;;;5012790;28;20075;-68
2023/01/07 06:04:00;;;;;;;9.73;6.97;;;22.00;54.50;;;;;;5007659;28;20133;-68
2023/01/07 06:06:27;;;;;;;9.02;7.55;;;21.80;52.80;;;;;;5007746;28;20070;-70
2023/01/07 06:08:52;;;;;;;7.28;6.32;;;21.60;50.80;;;;;;5056223;28;20044;-68
2023/01/07 06:11:19;;;;;;;7.03;5.18;;;21.60;48.70;;;;;;5050428;28;20505;-69
2023/01/07 06:13:45;;;;;;;9.73;6.70;;;21.60;46.60;;;;;;5049637;28;20025;-69
2023/01/07 06:16:13;;;;;;;11.90;6.63;;;21.70;47.90;;;;;;5050024;28;20037;-69
2023/01/07 06:18:39;;;;;;;8.50;5.85;;;21.70;47.60;;;;;;5050294;28;20025;-71
2023/01/07 06:21:05;;;;;;;7.65;6.03;;;21.80;47.80;;;;;;5049843;28;20033;-71
2023/01/07 06:23:31;;;;;;;10.80;7.28;;;21.80;47.60;;;;;;5032576;28;20470;-70
2023/01/07 06:25:57;;;;;;;11.45;8.90;;;21.70;47.90;;;;;;5050559;28;20025;-70
2023/01/07 06:28:23;;;;;;;8.65;6.13;;;21.80;47.20;;;;;;5050241;28;20508;-70
2023/01/07 06:30:49;;;;;;;11.45;8.27;;;21.70;47.60;;;;;;5050180;28;20060;-68
2023/01/07 06:33:15;;;;;;;11.65;6.70;;;21.90;47.40;;;;;;5050242;28;20041;-70
2023/01/07 06:35:43;;;;;;;6.93;5.45;;;21.70;48.50;;;;;;5050369;28;20493;-70
2023/01/07 06:38:09;;;;;;;10.18;7.85;;;21.80;47.50;;;;;;5032480;28;20029;-71
2023/01/07 06:40:36;;;;;;;10.90;8.73;;;21.80;46.40;;;;;;5050236;28;20021;-69
2023/01/07 06:43:02;;;;;;;8.70;7.15;;;21.70;46.40;;;;;;5049924;28;20382;-69
2023/01/07 06:45:28;;;;;;;11.50;7.80;;;21.70;47.00;;;;;;4998336;28;20079;-72
2023/01/07 06:47:56;;;;;;;11.80;7.85;;;21.70;46.20;;;;;;5050312;28;20037;-72
2023/01/07 06:50:22;;;;;;;8.50;6.90;;;21.90;53.10;;;;;;5051364;28;20029;-74
2023/01/07 06:52:48;;;;;;;9.35;6.25;;;22.00;61.50;;;;;;5060555;28;20115;-72
2023/01/07 06:55:14;;;;;;;8.52;6.28;;;22.20;59.30;;;;;;5094438;28;20062;-71
2023/01/07 06:57:40;;;;;;;9.75;6.35;;;22.20;58.60;;;;;;5094463;28;20032;-70
2023/01/07 07:00:06;;;;;;;6.70;4.80;;;22.50;58.90;;;;;;5070967;28;20045;-72
2023/01/07 07:02:32;;;;;;;6.75;4.95;;;22.20;59.30;;;;;;5018929;28;20084;-74
2023/01/07 07:04:58;;;;;;;9.63;5.60;;;22.20;58.70;;;;;;5053968;28;20045;-72
2023/01/07 07:07:24;;;;;;;8.95;5.60;;;22.30;57.80;;;;;;5036313;28;20099;-73
2023/01/07 07:09:50;;;;;;;8.95;6.18;;;22.30;58.50;;;;;;5053825;28;20072;-72
2023/01/07 07:12:18;;;;;;;6.93;5.43;;;22.50;57.00;;;;;;5059223;28;20033;-73
2023/01/07 07:14:44;;;;;;;8.23;5.20;;;22.50;55.60;;;;;;5073706;28;20041;-75
2023/01/07 07:17:10;;;;;;;8.10;5.55;;;22.50;55.40;;;;;;5063900;28;20625;-68
2023/01/07 07:19:36;;;;;;;7.03;4.78;;;22.60;55.30;;;;;;5054072;28;20113;-69
2023/01/07 07:22:03;;;;;;;8.60;5.63;;;22.60;55.40;;;;;;5053727;28;20462;-69
2023/01/07 07:24:29;;;;;;;10.57;6.00;;;22.60;55.00;;;;;;5053656;28;20041;-68
2023/01/07 07:26:55;;;;;;;6.95;5.15;;;22.70;54.40;;;;;;5053660;28;20052;-68
2023/01/07 07:29:20;;;;;;;5.90;4.97;;;22.70;54.00;;;;;;5053476;28;20032;-69
2023/01/07 07:31:46;;;;;;;7.68;4.78;;;22.70;54.00;;;;;;5053465;28;20029;-70
2023/01/07 07:34:13;;;;;;;9.50;6.80;;;22.80;54.10;;;;;;5066647;28;20504;-69
2023/01/07 07:36:39;;;;;;;9.43;6.60;;;22.70;54.00;;;;;;5067795;28;20045;-69
2023/01/07 07:39:05;;;;;;;9.23;6.28;;;22.40;54.70;;;;;;5065205;28;20036;-68
2023/01/07 07:41:30;;;;;;;10.23;6.25;;;22.40;55.30;;;;;;5067328;28;20037;-69
2023/01/07 07:43:59;;;;;;;9.25;6.88;;;22.20;55.80;;;;;;5035579;28;20041;-70
2023/01/07 07:46:25;;;;;;;10.63;7.10;;;22.10;56.40;;;;;;5053372;28;20025;-69
2023/01/07 07:48:51;;;;;;;9.95;7.38;;;22.10;56.90;;;;;;5053525;28;20033;-68
2023/01/07 07:51:17;;;;;;;9.63;6.80;;;21.90;57.30;;;;;;5069128;28;20070;-69
2023/01/07 07:53:43;;;;;;;13.15;7.45;;;21.80;57.40;;;;;;5063757;28;20032;-70
2023/01/07 07:56:09;;;;;;;12.25;6.68;;;21.80;58.00;;;;;;5073109;28;20044;-69
2023/01/07 07:58:35;;;;;;;9.85;7.18;;;21.70;58.30;;;;;;5067155;28;20041;-69
2023/01/07 08:01:01;;;;;;;11.10;7.30;;;21.60;58.40;;;;;;5052991;28;20040;-69
2023/01/07 08:03:27;;;;;;;10.88;6.70;;;21.50;58.80;;;;;;5071727;28;20021;-71
2023/01/07 08:05:53;;;;;;;10.82;7.72;;;21.50;59.30;;;;;;5062848;28;20576;-70
2023/01/07 08:08:19;;;;;;;10.57;7.25;;;21.50;59.40;;;;;;5058416;28;20025;-70
2023/01/07 08:10:45;;;;;;;9.77;6.88;;;21.40;59.70;;;;;;5061988;28;20438;-70
2023/01/07 08:13:11;;;;;;;12.82;7.65;;;21.40;60.00;;;;;;5072170;28;20085;-71
2023/01/07 08:15:37;;;;;;;10.65;6.95;;;21.50;60.10;;;;;;5053064;28;20443;-71
2023/01/07 08:18:06;;;;;;;10.35;7.00;;;21.20;60.60;;;;;;5072405;28;20024;-71
2023/01/07 08:20:34;;;;;;;12.00;8.38;;;21.20;61.20;;;;;;5070765;28;20029;-71
2023/01/07 08:23:02;;;;;;;13.52;6.90;;;21.10;62.70;;;;;;5072357;28;20040;-69
2023/01/07 08:25:29;;;;;;;12.98;7.88;;;21.50;71.30;;;;;;5072147;28;20041;-70
2023/01/07 08:27:57;;;;;;;11.43;8.05;;;22.30;69.00;;;;;;5072703;28;20043;-66
2023/01/07 08:30:24;;;;;;;10.18;7.03;;;23.00;65.60;;;;;;5072682;28;20064;-68
2023/01/07 08:32:50;;;;;;;11.70;8.02;;;23.40;61.70;;;;;;5072337;28;20116;-68
2023/01/07 08:35:16;;;;;;;9.65;7.90;;;23.30;57.00;;;;;;5072354;28;20040;-69
2023/01/07 08:37:43;;;;;;;14.77;7.50;;;23.30;61.90;;;;;;5071691;28;20485;-68
2023/01/07 08:40:11;;;;;;;8.98;5.38;;;23.50;56.30;;;;;;5071926;28;20112;-68
2023/01/07 08:42:37;;;;;;;8.20;6.63;;;23.40;55.00;;;;;;5070558;28;20089;-69
2023/01/07 08:45:05;;;;;;;13.38;8.45;;;23.70;55.50;;;;;;5052849;28;20498;-72
2023/01/07 08:47:31;;;;;;;15.35;7.50;;;23.60;54.50;;;;;;5071441;28;20067;-70
2023/01/07 08:49:57;;;;;;;10.85;6.47;;;23.90;57.20;;;;;;5071300;28;20028;-69
2023/01/07 08:52:24;;;;;;;11.90;7.05;;;23.90;60.50;;;;;;5071263;28;20123;-70
2023/01/07 08:54:50;;;;;;;10.50;5.85;;;24.10;58.50;;;;;;5053042;28;20029;-69
2023/01/07 08:57:17;;;;;;;9.35;6.35;;;24.30;62.70;;;;;;5051719;28;20057;-70
2023/01/07 08:59:43;;;;;;;10.93;7.22;;;24.20;57.30;;;;;;5108242;28;20083;-69
2023/01/07 09:02:13;;;;;;;15.00;7.53;;;24.40;63.40;;;;;;5092052;28;20040;-69
2023/01/07 09:04:39;;;;;;;7.70;5.32;;;24.50;66.30;;;;;;5111735;28;20035;-70
2023/01/07 09:07:05;;;;;;;9.93;6.60;;;24.60;51.00;;;;;;5091927;28;20161;-69
2023/01/07 09:09:31;;;;;;;7.65;6.80;;;24.50;56.60;;;;;;5078590;28;20138;-71
2023/01/07 09:11:57;;;;;;;11.00;6.97;;;24.50;51.00;;;;;;5017217;28;20494;-67
2023/01/07 09:14:23;;;;;;;11.15;7.13;;;24.60;53.70;;;;;;5033618;28;20033;-70
2023/01/07 09:16:49;;;;;;;11.75;7.35;;;24.60;53.60;;;;;;5033701;28;20082;-68
2023/01/07 09:19:15;;;;;;;12.35;7.18;;;24.60;49.60;;;;;;5051584;28;20473;-68
2023/01/07 09:21:41;;;;;;;8.35;7.40;;;24.50;48.60;;;;;;5051512;28;20025;-69
2023/01/07 09:24:07;;;;;;;7.75;6.30;;;24.50;48.80;;;;;;5051685;28;20112;-71
2023/01/07 09:26:33;;;;;;;12.88;5.05;;;24.50;51.80;;;;;;4983645;28;20052;-68
2023/01/07 09:28:59;;;;;;;8.75;6.82;;;24.50;52.70;;;;;;5051310;28;20529;-69
2023/01/07 09:31:25;;;;;;;7.95;6.15;;;24.60;47.30;;;;;;5051431;28;20108;-69
2023/01/07 09:33:51;;;;;;;7.18;3.25;;;24.50;50.00;;;;;;5051223;28;20040;-69
2023/01/07 09:36:17;;;;;;;9.75;7.63;;;24.50;54.00;;;;;;5033243;28;20035;-70
2023/01/07 09:38:43;;;;;;;12.07;6.65;;;24.70;52.30;;;;;;5051289;28;20064;-69
2023/01/07 09:41:39;;;;;;;9.27;6.63;;;24.60;49.50;;;;;;5051357;28;20044;-68
2023/01/07 09:44:23;;;;;;;12.88;7.43;;;24.50;45.90;;;;;;5051074;28;20025;-69
2023/01/07 09:46:51;;;;;;;11.30;7.45;;;24.50;40.90;;;;;;5065782;28;20024;-70
2023/01/07 09:49:18;;;;;;;6.68;4.75;;;24.50;43.90;;;;;;5091902;28;20036;-71
2023/01/07 09:52:09;;;;;;;8.00;4.80;;;24.50;46.10;;;;;;5091522;28;20457;-71
2023/01/07 09:54:38;;;;;;;12.75;7.60;;;24.50;42.70;;;;;;5091028;28;20024;-72
2023/01/07 09:57:04;;;;;;;8.93;5.55;;;24.60;43.80;;;;;;5072837;28;20105;-69
2023/01/07 09:59:31;;;;;;;9.77;7.70;;;24.70;52.20;;;;;;5091385;28;20028;-71
2023/01/07 10:02:24;;;;;;;9.45;7.25;;;24.70;39.40;;;;;;5091075;28;20032;-71
2023/01/07 10:05:05;;;;;;;;;;;24.70;38.20;;;;;;5073364;28;20171;-72
2023/01/07 10:07:39;;;;;;;14.30;7.90;;;24.70;39.40;;;;;;5090935;28;19962;-71
2023/01/07 10:10:29;;;;;;;9.05;6.07;;;24.60;42.50;;;;;;5091160;28;20055;-71
2023/01/07 10:13:22;;;;;;;10.73;6.63;;;24.70;43.70;;;;;;5090858;28;20035;-71
2023/01/07 10:15:48;;;;;;;22.55;7.97;;;24.70;41.40;;;;;;5090725;28;20055;-69
2023/01/07 10:18:31;;;;;;;7.55;6.55;;;24.70;42.80;;;;;;5090649;28;20511;-70
2023/01/07 10:21:05;;;;;;;11.00;7.18;;;24.80;45.40;;;;;;5072746;28;20040;-71
2023/01/07 10:23:37;;;;;;;8.48;6.63;;;24.90;52.60;;;;;;5090799;28;20119;-71
2023/01/07 10:26:05;;;;;;;9.13;6.57;;;24.80;52.50;;;;;;5037517;28;20036;-71
2023/01/07 10:28:47;;;;;;;9.75;6.80;;;24.90;56.50;;;;;;5090479;28;20665;-71
2023/01/07 10:31:26;;;;;;;8.65;6.28;;;24.70;53.40;;;;;;5072738;28;20067;-73
2023/01/07 10:33:55;;;;;;;9.20;7.20;;;24.70;53.70;;;;;;5090537;28;20067;-69
2023/01/07 10:36:42;;;;;;;10.82;7.10;;;24.70;53.90;;;;;;5047839;28;20067;-71
2023/01/07 10:39:38;;;;;;;10.52;7.30;;;24.50;54.10;;;;;;5030943;28;20040;-70
2023/01/07 10:42:24;;;;;;;8.65;6.40;;;24.50;54.60;;;;;;5047830;28;20049;-70
2023/01/07 10:44:53;;;;;;;9.23;7.10;;;24.40;54.60;;;;;;5047625;28;20110;-71
2023/01/07 10:47:45;;;;;;;12.75;9.05;;;24.30;55.00;;;;;;5047417;28;20115;-69
2023/01/07 10:50:35;;;;;;;11.88;8.88;;;24.20;55.40;;;;;;5047698;28;20060;-71
2023/01/07 10:53:22;;;;;;;8.77;6.75;;;24.00;56.50;;;;;;5047711;28;20541;-70
2023/01/07 10:56:11;;;;;;;10.50;8.13;;;23.90;57.90;;;;;;5030843;28;20045;-71
2023/01/07 10:58:40;;;;;;;14.38;7.80;;;24.10;60.30;;;;;;5047585;28;20060;-71
2023/01/07 11:01:15;;;;;;;15.15;11.15;;;24.50;60.70;;;;;;5047424;28;20537;-70
2023/01/07 11:03:42;;;;;;;15.45;8.95;;;24.60;61.70;;;;;;5047732;28;20754;-71
2023/01/07 11:06:12;;;;;;;13.55;8.15;;;24.70;66.30;;;;;;5006559;28;20107;-72
2023/01/07 11:08:41;;;;;;;7.82;6.80;;;25.00;72.10;;;;;;5071973;28;20511;-72
2023/01/07 11:11:18;;;;;;;10.02;7.50;;;25.00;75.50;;;;;;5090192;28;20059;-74
2023/01/07 11:13:57;;;;;;;9.38;7.22;;;25.00;67.30;;;;;;5072434;28;20036;-71
2023/01/07 11:16:28;;;;;;;10.10;8.07;;;24.70;63.10;;;;;;5089987;28;20069;-71
2023/01/07 11:19:04;;;;;;;12.60;7.53;;;24.50;63.80;;;;;;5089703;28;20071;-71
2023/01/07 11:21:44;;;;;;;13.70;7.82;;;25.30;67.40;;;;;;5089898;28;20032;-71
2023/01/07 11:24:32;;;;;;;10.48;7.32;;;25.30;58.80;;;;;;5089837;28;20036;-71
2023/01/07 11:27:02;;;;;;;7.65;6.70;;;25.30;49.30;;;;;;5047362;28;20045;-73
2023/01/07 11:29:40;;;;;;;9.63;5.95;;;25.40;47.60;;;;;;5047105;28;20095;-73
2023/01/07 11:32:30;;;;;;;10.68;7.68;;;25.30;43.80;;;;;;5047423;28;20068;-73
2023/01/07 11:35:00;;;;;;;8.52;6.57;;;25.20;45.90;;;;;;5047355;28;20041;-74
2023/01/07 11:37:46;;;;;;;10.80;7.20;;;25.00;46.00;;;;;;5030634;28;20100;-71
2023/01/07 11:40:12;;;;;;;9.93;5.68;;;25.00;46.70;;;;;;5027921;28;20041;-72
2023/01/07 11:42:54;;;;;;;14.00;8.55;;;25.20;45.10;;;;;;5011289;28;20037;-71
2023/01/07 11:45:30;;;;;;;21.70;8.23;;;25.10;44.40;;;;;;5011154;28;20075;-73
2023/01/07 11:48:09;;;;;;;11.32;8.43;;;25.10;54.30;;;;;;5010784;28;20133;-72
2023/01/07 11:50:54;;;;;;;12.35;7.55;;;25.10;55.00;;;;;;5011270;28;20049;-74
2023/01/07 11:53:42;;;;;;;15.13;8.07;;;25.00;55.00;;;;;;5011052;28;20375;-72
2023/01/07 11:56:20;;;;;;;11.85;8.60;;;24.90;55.90;;;;;;5011010;28;20752;-72
2023/01/07 11:58:49;;;;;;;11.23;8.82;;;24.80;56.40;;;;;;5046064;28;20045;-73
2023/01/07 12:01:22;;;;;;;12.52;9.27;;;24.60;56.80;;;;;;5053247;28;20657;-72
2023/01/07 12:03:51;;;;;;;14.27;10.20;;;24.40;57.30;;;;;;5053181;28;20076;-71
2023/01/07 12:06:30;;;;;;;13.73;8.55;;;24.30;57.90;;;;;;5055757;28;20017;-70
2023/01/07 12:09:08;;;;;;;12.27;7.82;;;24.10;58.50;;;;;;5058855;28;20036;-72
2023/01/07 12:11:38;;;;;;;11.77;7.35;;;24.00;59.10;;;;;;5066638;28;20040;-70
2023/01/07 12:14:16;;;;;;;15.65;10.10;;;23.90;59.60;;;;;;5054894;28;20032;-72
2023/01/07 12:16:44;;;;;;;16.65;9.80;;;23.80;60.00;;;;;;5072535;28;20036;-72
2023/01/07 12:19:30;;;;;;;19.98;10.05;;;23.80;60.20;;;;;;5080109;28;20032;-71
2023/01/07 12:22:17;;;;;;;16.13;10.55;;;23.70;60.40;;;;;;5041493;28;20063;-71
2023/01/07 12:25:21;;;;;;;12.88;9.30;;;23.80;60.60;;;;;;5051238;28;20166;-71
2023/01/07 12:28:11;;;;;;;14.98;10.05;;;23.80;60.80;;;;;;4994350;28;20033;-71
2023/01/07 12:31:19;;;;;;;16.63;8.65;;;23.60;60.90;;;;;;4994029;28;20467;-71
2023/01/07 12:34:17;;;;;;;14.63;9.48;;;23.60;61.20;;;;;;4994440;28;20555;-70
2023/01/07 12:37:01;;;;;;;12.07;8.82;;;23.50;61.60;;;;;;4993857;28;20053;-71
2023/01/07 12:39:42;;;;;;;15.02;9.13;;;23.50;61.80;;;;;;4952985;28;20092;-71
2023/01/07 12:42:20;;;;;;;14.95;9.30;;;23.30;62.00;;;;;;4954903;28;20031;-72
2023/01/07 12:44:51;;;;;;;12.07;8.35;;;23.30;62.30;;;;;;4954953;28;20043;-72
2023/01/07 12:47:21;;;;;;;12.20;8.25;;;23.30;62.00;;;;;;4962182;28;20080;-70
2023/01/07 12:49:59;;;;;;;13.35;9.00;;;23.40;62.10;;;;;;4951186;29;20043;-71
2023/01/07 12:53:04;;;;;;;12.32;8.23;;;23.30;62.20;;;;;;4951574;29;20043;-69
2023/01/07 12:55:34;;;;;;;10.25;8.20;;;23.20;62.50;;;;;;4913324;29;20692;-73
2023/01/07 12:58:18;;;;;;;10.65;8.20;;;23.20;62.50;;;;;;4901906;28;20047;-72
2023/01/07 13:01:11;;;;;;;11.60;7.45;;;23.00;62.50;;;;;;4951171;28;20043;-72
2023/01/07 13:03:45;;;;;;;14.57;8.63;;;23.10;62.60;;;;;;4950925;28;20122;-72
2023/01/07 13:06:41;;;;;;;13.90;9.52;;;23.10;62.90;;;;;;4962891;28;20070;-72